createdAt,value
2018-02-14T00:00:21.673Z,1014.46
2018-02-14T00:01:21.688Z,1014.44
2018-02-14T00:02:21.708Z,1014.43
2018-02-14T00:03:21.724Z,1014.48
2018-02-14T00:04:21.746Z,1014.46
2018-02-14T00:05:21.765Z,1014.48
2018-02-14T00:06:21.783Z,1014.49
2018-02-14T00:07:21.803Z,1014.46
2018-02-14T00:08:21.828Z,1014.49
2018-02-14T00:09:21.842Z,1014.54
2018-02-14T00:10:21.858Z,1014.46
2018-02-14T00:11:21.885Z,1014.52
2018-02-14T00:12:21.906Z,1014.52
2018-02-14T00:13:21.921Z,1014.54
2018-02-14T00:14:21.942Z,1014.51
2018-02-14T00:15:21.955Z,1014.54
2018-02-14T00:16:21.977Z,1014.53
2018-02-14T00:17:21.995Z,1014.54
2018-02-14T00:18:22.010Z,1014.59
2018-02-14T00:19:22.033Z,1014.55
2018-02-14T00:20:22.049Z,1014.54
2018-02-14T00:21:22.066Z,1014.58
2018-02-14T00:22:22.089Z,1014.58
2018-02-14T00:23:22.107Z,1014.58
2018-02-14T00:24:22.126Z,1014.61
2018-02-14T00:25:22.156Z,1014.61
2018-02-14T00:26:22.164Z,1014.62
2018-02-14T00:27:22.187Z,1014.61
2018-02-14T00:28:22.207Z,1014.62
2018-02-14T00:29:22.222Z,1014.65
2018-02-14T00:30:22.237Z,1014.64
2018-02-14T00:31:22.254Z,1014.66
2018-02-14T00:32:22.273Z,1014.68
2018-02-14T00:33:22.295Z,1014.70
2018-02-14T00:34:22.324Z,1014.69
2018-02-14T00:35:22.330Z,1014.74
2018-02-14T00:36:22.355Z,1014.74
2018-02-14T00:37:22.375Z,1014.75
2018-02-14T00:38:22.413Z,1014.77
2018-02-14T00:39:22.415Z,1014.74
2018-02-14T00:40:22.434Z,1014.74
2018-02-14T00:41:22.446Z,1014.77
2018-02-14T00:42:22.468Z,1014.76
2018-02-14T00:43:22.488Z,1014.75
2018-02-14T00:44:22.507Z,1014.76
2018-02-14T00:45:22.524Z,1014.75
2018-02-14T00:46:22.540Z,1014.74
2018-02-14T00:47:22.558Z,1014.78
2018-02-14T00:48:22.582Z,1014.77
2018-02-14T00:49:22.593Z,1014.76
2018-02-14T00:50:22.618Z,1014.76
2018-02-14T00:51:22.707Z,1014.72
2018-02-14T00:52:22.657Z,1014.80
2018-02-14T00:53:22.702Z,1014.79
2018-02-14T00:54:22.694Z,1014.80
2018-02-14T00:55:22.710Z,1014.82
2018-02-14T00:56:22.726Z,1014.81
2018-02-14T00:57:22.749Z,1014.80
2018-02-14T00:58:22.765Z,1014.83
2018-02-14T00:59:22.779Z,1014.80
2018-02-14T01:00:22.800Z,1014.81
2018-02-14T01:01:22.822Z,1014.83
2018-02-14T01:02:22.839Z,1014.84
2018-02-14T01:03:22.857Z,1014.83
2018-02-14T01:04:22.875Z,1014.84
2018-02-14T01:05:22.892Z,1014.84
2018-02-14T01:06:22.918Z,1014.83
2018-02-14T01:07:22.930Z,1014.85
2018-02-14T01:08:22.953Z,1014.83
2018-02-14T01:09:22.965Z,1014.87
2018-02-14T01:10:22.988Z,1014.84
2018-02-14T01:11:23.013Z,1014.83
2018-02-14T01:12:23.036Z,1014.89
2018-02-14T01:13:23.043Z,1014.85
2018-02-14T01:14:23.062Z,1014.83
2018-02-14T01:15:23.079Z,1014.85
2018-02-14T01:16:23.105Z,1014.88
2018-02-14T01:17:23.117Z,1014.85
2018-02-14T01:18:23.138Z,1014.85
2018-02-14T01:19:23.156Z,1014.85
2018-02-14T01:20:23.179Z,1014.85
2018-02-14T01:21:23.215Z,1014.87
2018-02-14T01:22:23.213Z,1014.87
2018-02-14T01:23:23.231Z,1014.84
2018-02-14T01:24:23.250Z,1014.86
2018-02-14T01:25:23.264Z,1014.89
2018-02-14T01:26:23.285Z,1014.87
2018-02-14T01:27:23.310Z,1014.92
2018-02-14T01:28:23.324Z,1014.92
2018-02-14T01:29:23.342Z,1014.94
2018-02-14T01:30:23.370Z,1014.93
2018-02-14T01:31:23.380Z,1014.93
2018-02-14T01:32:23.400Z,1014.95
2018-02-14T01:33:23.419Z,1014.92
2018-02-14T01:34:23.438Z,1014.91
2018-02-14T01:35:23.458Z,1014.89
2018-02-14T01:36:23.482Z,1014.90
2018-02-14T01:37:23.492Z,1014.90
2018-02-14T01:38:23.512Z,1014.91
2018-02-14T01:39:23.535Z,1014.92
2018-02-14T01:40:23.549Z,1014.94
2018-02-14T01:41:23.565Z,1014.92
2018-02-14T01:42:23.584Z,1014.95
2018-02-14T01:43:23.604Z,1014.95
2018-02-14T01:44:23.624Z,1014.95
2018-02-14T01:45:23.649Z,1014.92
2018-02-14T01:46:23.656Z,1014.94
2018-02-14T01:47:23.674Z,1014.95
2018-02-14T01:48:23.705Z,1014.94
2018-02-14T01:49:23.716Z,1014.93
2018-02-14T01:50:23.738Z,1014.94
2018-02-14T01:51:23.751Z,1014.94
2018-02-14T01:52:23.771Z,1014.93
2018-02-14T01:53:23.788Z,1014.95
2018-02-14T01:54:23.811Z,1014.93
2018-02-14T01:55:23.826Z,1014.95
2018-02-14T01:56:24.772Z,1014.92
2018-02-14T01:57:23.868Z,1014.96
2018-02-14T01:58:23.882Z,1014.95
2018-02-14T01:59:23.906Z,1014.96
2018-02-14T02:00:23.924Z,1014.97
2018-02-14T02:01:23.933Z,1014.96
2018-02-14T02:02:23.955Z,1014.95
2018-02-14T02:03:23.981Z,1014.96
2018-02-14T02:04:23.990Z,1014.97
2018-02-14T02:05:24.010Z,1014.96
2018-02-14T02:06:24.034Z,1014.99
2018-02-14T02:07:24.051Z,1015.00
2018-02-14T02:08:24.089Z,1015.03
2018-02-14T02:09:24.087Z,1015.00
2018-02-14T02:10:24.102Z,1014.96
2018-02-14T02:11:24.123Z,1014.99
2018-02-14T02:12:24.148Z,1014.98
2018-02-14T02:13:24.162Z,1015.01
2018-02-14T02:14:24.179Z,1015.03
2018-02-14T02:15:24.201Z,1015.02
2018-02-14T02:16:24.225Z,1015.02
2018-02-14T02:17:24.230Z,1015.01
2018-02-14T02:18:24.250Z,1014.99
2018-02-14T02:19:24.274Z,1015.02
2018-02-14T02:20:24.290Z,1014.98
2018-02-14T02:21:24.314Z,1014.98
2018-02-14T02:22:24.334Z,1014.97
2018-02-14T02:23:24.342Z,1014.98
2018-02-14T02:24:24.401Z,1015.01
2018-02-14T02:25:24.379Z,1014.92
2018-02-14T02:26:24.398Z,1014.96
2018-02-14T02:27:24.423Z,1014.97
2018-02-14T02:28:24.436Z,1014.95
2018-02-14T02:29:24.451Z,1014.99
2018-02-14T02:30:24.473Z,1014.95
2018-02-14T02:31:24.493Z,1014.95
2018-02-14T02:32:24.509Z,1014.97
2018-02-14T02:33:24.529Z,1014.98
2018-02-14T02:34:24.548Z,1014.97
2018-02-14T02:35:24.651Z,1014.99
2018-02-14T02:36:24.585Z,1014.99
2018-02-14T02:37:24.605Z,1014.99
2018-02-14T02:38:24.618Z,1015.02
2018-02-14T02:39:24.644Z,1015.01
2018-02-14T02:40:24.658Z,1015.01
2018-02-14T02:41:24.674Z,1015.04
2018-02-14T02:42:24.694Z,1015.06
2018-02-14T02:43:24.711Z,1015.04
2018-02-14T02:44:24.738Z,1015.04
2018-02-14T02:45:24.755Z,1015.06
2018-02-14T02:46:24.766Z,1015.04
2018-02-14T02:47:24.782Z,1015.05
2018-02-14T02:48:24.804Z,1015.08
2018-02-14T02:49:24.827Z,1015.09
2018-02-14T02:50:24.844Z,1015.08
2018-02-14T02:51:24.874Z,1015.10
2018-02-14T02:52:24.877Z,1015.11
2018-02-14T02:53:24.911Z,1015.11
2018-02-14T02:54:24.917Z,1015.08
2018-02-14T02:55:24.932Z,1015.11
2018-02-14T02:56:24.949Z,1015.13
2018-02-14T02:57:24.967Z,1015.13
2018-02-14T02:58:24.991Z,1015.15
2018-02-14T02:59:25.008Z,1015.12
2018-02-14T03:00:25.022Z,1015.12
2018-02-14T03:01:25.046Z,1015.14
2018-02-14T03:02:25.059Z,1015.14
2018-02-14T03:03:25.081Z,1015.14
2018-02-14T03:04:25.100Z,1015.15
2018-02-14T03:05:25.112Z,1015.13
2018-02-14T03:06:25.157Z,1015.16
2018-02-14T03:07:25.157Z,1015.15
2018-02-14T03:08:25.173Z,1015.16
2018-02-14T03:09:25.191Z,1015.15
2018-02-14T03:10:25.211Z,1015.17
2018-02-14T03:11:25.226Z,1015.15
2018-02-14T03:12:25.245Z,1015.11
2018-02-14T03:13:25.264Z,1015.19
2018-02-14T03:14:25.281Z,1015.18
2018-02-14T03:15:25.298Z,1015.20
2018-02-14T03:16:25.319Z,1015.21
2018-02-14T03:17:25.335Z,1015.22
2018-02-14T03:18:25.355Z,1015.24
2018-02-14T03:19:25.379Z,1015.23
2018-02-14T03:20:25.392Z,1015.23
2018-02-14T03:21:25.407Z,1015.29
2018-02-14T03:22:25.425Z,1015.31
2018-02-14T03:23:25.444Z,1015.28
2018-02-14T03:24:25.466Z,1015.27
2018-02-14T03:25:25.478Z,1015.30
2018-02-14T03:26:25.509Z,1015.30
2018-02-14T03:27:25.521Z,1015.31
2018-02-14T03:28:25.544Z,1015.30
2018-02-14T03:29:25.564Z,1015.32
2018-02-14T03:30:25.571Z,1015.34
2018-02-14T03:31:25.592Z,1015.36
2018-02-14T03:32:26.274Z,1015.35
2018-02-14T03:33:25.622Z,1015.37
2018-02-14T03:34:25.647Z,1015.39
2018-02-14T03:35:25.678Z,1015.35
2018-02-14T03:36:25.681Z,1015.39
2018-02-14T03:37:25.698Z,1015.44
2018-02-14T03:38:25.719Z,1015.42
2018-02-14T03:39:25.739Z,1015.44
2018-02-14T03:40:25.761Z,1015.43
2018-02-14T03:41:25.771Z,1015.42
2018-02-14T03:42:25.794Z,1015.45
2018-02-14T03:43:25.810Z,1015.46
2018-02-14T03:44:25.840Z,1015.48
2018-02-14T03:45:25.851Z,1015.47
2018-02-14T03:46:25.863Z,1015.46
2018-02-14T03:47:25.885Z,1015.47
2018-02-14T03:48:25.899Z,1015.47
2018-02-14T03:49:25.923Z,1015.47
2018-02-14T03:50:25.937Z,1015.51
2018-02-14T03:51:25.957Z,1015.49
2018-02-14T03:52:25.974Z,1015.50
2018-02-14T03:53:26.155Z,1015.51
2018-02-14T03:54:26.016Z,1015.54
2018-02-14T03:55:26.032Z,1015.53
2018-02-14T03:56:26.051Z,1015.51
2018-02-14T03:57:26.062Z,1015.52
2018-02-14T03:58:26.091Z,1015.50
2018-02-14T03:59:26.102Z,1015.58
2018-02-14T04:00:26.119Z,1015.56
2018-02-14T04:01:26.136Z,1015.59
2018-02-14T04:02:26.159Z,1015.55
2018-02-14T04:03:26.178Z,1015.58
2018-02-14T04:04:26.193Z,1015.63
2018-02-14T04:05:26.209Z,1015.61
2018-02-14T04:06:26.230Z,1015.64
2018-02-14T04:07:26.245Z,1015.69
2018-02-14T04:08:26.274Z,1015.68
2018-02-14T04:09:26.284Z,1015.69
2018-02-14T04:10:26.304Z,1015.72
2018-02-14T04:11:26.316Z,1015.71
2018-02-14T04:12:26.338Z,1015.72
2018-02-14T04:13:26.353Z,1015.77
2018-02-14T04:14:26.373Z,1015.77
2018-02-14T04:15:26.396Z,1015.77
2018-02-14T04:16:26.410Z,1015.78
2018-02-14T04:17:26.431Z,1015.76
2018-02-14T04:18:26.450Z,1015.80
2018-02-14T04:19:26.478Z,1015.78
2018-02-14T04:20:26.478Z,1015.76
2018-02-14T04:21:26.505Z,1015.76
2018-02-14T04:22:26.520Z,1015.80
2018-02-14T04:23:26.577Z,1015.81
2018-02-14T04:24:26.558Z,1015.80
2018-02-14T04:25:26.570Z,1015.82
2018-02-14T04:26:26.590Z,1015.87
2018-02-14T04:27:26.610Z,1015.85
2018-02-14T04:28:26.627Z,1015.92
2018-02-14T04:29:26.644Z,1015.87
2018-02-14T04:30:26.661Z,1015.90
2018-02-14T04:31:26.689Z,1015.91
2018-02-14T04:32:26.742Z,1015.96
2018-02-14T04:33:26.712Z,1015.98
2018-02-14T04:34:26.779Z,1015.95
2018-02-14T04:35:26.753Z,1015.94
2018-02-14T04:36:26.772Z,1015.99
2018-02-14T04:37:26.787Z,1015.99
2018-02-14T04:38:26.805Z,1016.02
2018-02-14T04:39:26.827Z,1016.02
2018-02-14T04:40:26.842Z,1016.02
2018-02-14T04:41:26.864Z,1016.05
2018-02-14T04:42:26.879Z,1016.05
2018-02-14T04:43:26.899Z,1016.03
2018-02-14T04:44:26.915Z,1016.07
2018-02-14T04:45:26.940Z,1016.04
2018-02-14T04:46:26.949Z,1016.03
2018-02-14T04:47:26.967Z,1016.03
2018-02-14T04:48:26.986Z,1016.02
2018-02-14T04:49:27.009Z,1016.04
2018-02-14T04:50:27.025Z,1016.08
2018-02-14T04:51:27.044Z,1016.07
2018-02-14T04:52:27.060Z,1016.02
2018-02-14T04:53:27.078Z,1016.04
2018-02-14T04:54:27.094Z,1016.06
2018-02-14T04:55:27.116Z,1016.08
2018-02-14T04:56:27.132Z,1016.09
2018-02-14T04:57:27.155Z,1016.10
2018-02-14T04:58:27.167Z,1016.12
2018-02-14T04:59:27.190Z,1016.11
2018-02-14T05:00:27.206Z,1016.10
2018-02-14T05:01:27.223Z,1016.10
2018-02-14T05:02:27.241Z,1016.11
2018-02-14T05:03:27.263Z,1016.14
2018-02-14T05:04:27.275Z,1016.16
2018-02-14T05:05:27.293Z,1016.16
2018-02-14T05:06:27.316Z,1016.19
2018-02-14T05:07:27.328Z,1016.17
2018-02-14T05:08:27.351Z,1016.16
2018-02-14T05:09:27.366Z,1016.16
2018-02-14T05:10:27.394Z,1016.19
2018-02-14T05:11:27.405Z,1016.19
2018-02-14T05:12:27.425Z,1016.22
2018-02-14T05:13:27.434Z,1016.21
2018-02-14T05:14:27.456Z,1016.22
2018-02-14T05:15:27.477Z,1016.20
2018-02-14T05:16:27.491Z,1016.20
2018-02-14T05:17:27.516Z,1016.19
2018-02-14T05:18:27.536Z,1016.26
2018-02-14T05:19:27.548Z,1016.27
2018-02-14T05:20:27.571Z,1016.22
2018-02-14T05:21:27.593Z,1016.22
2018-02-14T05:22:27.622Z,1016.27
2018-02-14T05:23:27.622Z,1016.27
2018-02-14T05:24:27.653Z,1016.28
2018-02-14T05:25:27.658Z,1016.26
2018-02-14T05:26:27.671Z,1016.28
2018-02-14T05:27:27.690Z,1016.31
2018-02-14T05:28:27.706Z,1016.31
2018-02-14T05:29:27.722Z,1016.34
2018-02-14T05:30:27.749Z,1016.32
2018-02-14T05:31:27.764Z,1016.35
2018-02-14T05:32:27.788Z,1016.34
2018-02-14T05:33:27.805Z,1016.34
2018-02-14T05:34:27.827Z,1016.36
2018-02-14T05:35:27.830Z,1016.35
2018-02-14T05:36:27.852Z,1016.36
2018-02-14T05:37:27.868Z,1016.37
2018-02-14T05:38:27.885Z,1016.40
2018-02-14T05:39:27.917Z,1016.39
2018-02-14T05:40:27.923Z,1016.45
2018-02-14T05:41:27.942Z,1016.44
2018-02-14T05:42:27.959Z,1016.41
2018-02-14T05:43:27.994Z,1016.50
2018-02-14T05:44:27.994Z,1016.46
2018-02-14T05:45:28.016Z,1016.50
2018-02-14T05:46:28.035Z,1016.52
2018-02-14T05:47:28.048Z,1016.51
2018-02-14T05:48:28.067Z,1016.55
2018-02-14T05:49:28.089Z,1016.52
2018-02-14T05:50:28.107Z,1016.57
2018-02-14T05:51:28.131Z,1016.55
2018-02-14T05:52:28.280Z,1016.56
2018-02-14T05:53:28.155Z,1016.55
2018-02-14T05:54:28.176Z,1016.60
2018-02-14T05:55:28.190Z,1016.60
2018-02-14T05:56:28.210Z,1016.62
2018-02-14T05:57:28.225Z,1016.61
2018-02-14T05:58:28.267Z,1016.68
2018-02-14T05:59:28.274Z,1016.68
2018-02-14T06:00:28.321Z,1016.68
2018-02-14T06:01:28.305Z,1016.68
2018-02-14T06:02:28.322Z,1016.69
2018-02-14T06:03:28.337Z,1016.67
2018-02-14T06:04:28.352Z,1016.72
2018-02-14T06:05:28.389Z,1016.72
2018-02-14T06:06:28.397Z,1016.75
2018-02-14T06:07:28.411Z,1016.75
2018-02-14T06:08:28.445Z,1016.76
2018-02-14T06:09:28.453Z,1016.75
2018-02-14T06:10:28.478Z,1016.75
2018-02-14T06:11:28.480Z,1016.81
2018-02-14T06:12:28.495Z,1016.82
2018-02-14T06:13:28.513Z,1016.84
2018-02-14T06:14:28.534Z,1016.84
2018-02-14T06:15:28.556Z,1016.88
2018-02-14T06:16:28.570Z,1016.88
2018-02-14T06:17:28.594Z,1016.90
2018-02-14T06:18:28.742Z,1016.92
2018-02-14T06:19:28.620Z,1016.93
2018-02-14T06:20:28.654Z,1016.96
2018-02-14T06:21:28.657Z,1017.00
2018-02-14T06:22:28.688Z,1017.00
2018-02-14T06:23:28.692Z,1016.99
2018-02-14T06:24:28.719Z,1017.01
2018-02-14T06:25:28.727Z,1017.05
2018-02-14T06:26:28.743Z,1017.02
2018-02-14T06:27:28.776Z,1017.00
2018-02-14T06:28:28.827Z,1016.99
2018-02-14T06:29:28.800Z,1016.97
2018-02-14T06:30:28.831Z,1017.01
2018-02-14T06:31:28.836Z,1017.02
2018-02-14T06:32:28.855Z,1017.02
2018-02-14T06:33:28.868Z,1017.01
2018-02-14T06:34:28.908Z,1017.01
2018-02-14T06:35:28.908Z,1017.04
2018-02-14T06:36:28.926Z,1017.01
2018-02-14T06:37:28.950Z,1016.99
2018-02-14T06:38:28.961Z,1017.04
2018-02-14T06:39:28.989Z,1017.05
2018-02-14T06:40:28.996Z,1017.06
2018-02-14T06:41:29.013Z,1017.06
2018-02-14T06:42:29.035Z,1017.08
2018-02-14T06:43:29.063Z,1017.07
2018-02-14T06:44:29.070Z,1017.10
2018-02-14T06:45:29.088Z,1017.11
2018-02-14T06:46:29.142Z,1017.11
2018-02-14T06:47:29.130Z,1017.12
2018-02-14T06:48:29.166Z,1017.12
2018-02-14T06:49:29.158Z,1017.16
2018-02-14T06:50:29.188Z,1017.15
2018-02-14T06:51:29.198Z,1017.13
2018-02-14T06:52:29.227Z,1017.17
2018-02-14T06:53:29.234Z,1017.24
2018-02-14T06:54:29.250Z,1017.20
2018-02-14T06:55:29.271Z,1017.23
2018-02-14T06:56:29.286Z,1017.24
2018-02-14T06:57:29.308Z,1017.28
2018-02-14T06:58:29.326Z,1017.27
2018-02-14T06:59:29.338Z,1017.29
2018-02-14T07:00:29.358Z,1017.30
2018-02-14T07:01:29.369Z,1017.35
2018-02-14T07:02:29.405Z,1017.37
2018-02-14T07:03:29.412Z,1017.40
2018-02-14T07:04:29.432Z,1017.45
2018-02-14T07:05:29.454Z,1017.43
2018-02-14T07:06:29.461Z,1017.40
2018-02-14T07:07:29.489Z,1017.41
2018-02-14T07:08:29.505Z,1017.41
2018-02-14T07:09:29.515Z,1017.46
2018-02-14T07:10:29.534Z,1017.46
2018-02-14T07:11:29.556Z,1017.48
2018-02-14T07:12:29.568Z,1017.44
2018-02-14T07:13:29.603Z,1017.46
2018-02-14T07:14:29.662Z,1017.48
2018-02-14T07:15:29.625Z,1017.47
2018-02-14T07:16:29.650Z,1017.48
2018-02-14T07:17:29.662Z,1017.49
2018-02-14T07:18:29.677Z,1017.49
2018-02-14T07:19:29.700Z,1017.48
2018-02-14T07:20:29.727Z,1017.56
2018-02-14T07:21:29.735Z,1017.52
2018-02-14T07:22:29.746Z,1017.57
2018-02-14T07:23:29.775Z,1017.59
2018-02-14T07:24:29.791Z,1017.58
2018-02-14T07:25:29.806Z,1017.59
2018-02-14T07:26:29.822Z,1017.61
2018-02-14T07:27:29.839Z,1017.61
2018-02-14T07:28:29.862Z,1017.62
2018-02-14T07:29:29.871Z,1017.62
2018-02-14T07:30:29.905Z,1017.65
2018-02-14T07:31:29.912Z,1017.63
2018-02-14T07:32:29.942Z,1017.65
2018-02-14T07:33:29.947Z,1017.63
2018-02-14T07:34:29.968Z,1017.63
2018-02-14T07:35:29.983Z,1017.62
2018-02-14T07:36:30.007Z,1017.61
2018-02-14T07:37:30.018Z,1017.60
2018-02-14T07:38:30.053Z,1017.60
2018-02-14T07:39:30.055Z,1017.62
2018-02-14T07:40:30.091Z,1017.63
2018-02-14T07:41:30.092Z,1017.63
2018-02-14T07:42:30.109Z,1017.65
2018-02-14T07:43:30.126Z,1017.67
2018-02-14T07:44:30.151Z,1017.65
2018-02-14T07:45:30.158Z,1017.65
2018-02-14T07:46:30.184Z,1017.69
2018-02-14T07:47:30.196Z,1017.71
2018-02-14T07:48:30.220Z,1017.70
2018-02-14T07:49:30.232Z,1017.72
2018-02-14T07:50:30.263Z,1017.70
2018-02-14T07:51:30.273Z,1017.76
2018-02-14T07:52:30.285Z,1017.70
2018-02-14T07:53:30.311Z,1017.78
2018-02-14T07:54:30.323Z,1017.75
2018-02-14T07:55:30.347Z,1017.80
2018-02-14T07:56:30.357Z,1017.83
2018-02-14T07:57:30.389Z,1017.83
2018-02-14T07:58:30.393Z,1017.85
2018-02-14T07:59:30.418Z,1017.82
2018-02-14T08:00:30.435Z,1017.87
2018-02-14T08:01:30.446Z,1017.85
2018-02-14T08:02:30.464Z,1017.88
2018-02-14T08:03:30.490Z,1017.88
2018-02-14T08:04:30.635Z,1017.88
2018-02-14T08:05:30.521Z,1017.88
2018-02-14T08:06:30.551Z,1017.89
2018-02-14T08:07:30.569Z,1017.91
2018-02-14T08:08:30.577Z,1017.94
2018-02-14T08:09:30.590Z,1017.90
2018-02-14T08:10:30.615Z,1017.91
2018-02-14T08:11:30.625Z,1017.88
2018-02-14T08:12:30.650Z,1017.89
2018-02-14T08:13:30.670Z,1017.91
2018-02-14T08:14:30.685Z,1017.95
2018-02-14T08:15:30.703Z,1017.93
2018-02-14T08:16:30.717Z,1017.94
2018-02-14T08:17:30.735Z,1017.97
2018-02-14T08:18:30.764Z,1017.92
2018-02-14T08:19:30.776Z,1017.97
2018-02-14T08:20:30.798Z,1017.97
2018-02-14T08:21:30.820Z,1017.96
2018-02-14T08:22:30.833Z,1017.97
2018-02-14T08:23:30.845Z,1017.98
2018-02-14T08:24:30.864Z,1017.99
2018-02-14T08:25:30.888Z,1018.00
2018-02-14T08:26:30.898Z,1017.98
2018-02-14T08:27:30.921Z,1018.02
2018-02-14T08:28:30.945Z,1018.00
2018-02-14T08:29:30.955Z,1018.04
2018-02-14T08:30:30.984Z,1018.00
2018-02-14T08:31:30.990Z,1018.03
2018-02-14T08:32:31.009Z,1018.04
2018-02-14T08:33:31.031Z,1018.05
2018-02-14T08:34:31.054Z,1018.01
2018-02-14T08:35:31.062Z,1018.02
2018-02-14T08:36:31.074Z,1017.98
2018-02-14T08:37:31.116Z,1017.97
2018-02-14T08:38:31.114Z,1018.01
2018-02-14T08:39:31.148Z,1017.98
2018-02-14T08:40:31.157Z,1017.96
2018-02-14T08:41:31.171Z,1017.96
2018-02-14T08:42:31.192Z,1017.97
2018-02-14T08:43:31.207Z,1017.97
2018-02-14T08:44:31.226Z,1017.99
2018-02-14T08:45:31.247Z,1017.98
2018-02-14T08:46:31.264Z,1017.95
2018-02-14T08:47:31.281Z,1017.97
2018-02-14T08:48:31.307Z,1017.94
2018-02-14T08:49:31.315Z,1017.99
2018-02-14T08:50:31.333Z,1018.02
2018-02-14T08:51:31.351Z,1018.00
2018-02-14T08:52:31.432Z,1017.97
2018-02-14T08:53:31.389Z,1018.02
2018-02-14T08:54:31.417Z,1018.02
2018-02-14T08:55:31.442Z,1018.04
2018-02-14T08:56:31.446Z,1018.05
2018-02-14T08:57:31.462Z,1018.08
2018-02-14T08:58:31.539Z,1018.09
2018-02-14T08:59:31.505Z,1018.08
2018-02-14T09:00:31.514Z,1018.06
2018-02-14T09:01:31.547Z,1018.07
2018-02-14T09:02:31.560Z,1018.06
2018-02-14T09:03:31.571Z,1018.09
2018-02-14T09:04:31.598Z,1018.12
2018-02-14T09:05:31.609Z,1018.12
2018-02-14T09:06:31.626Z,1018.11
2018-02-14T09:07:31.645Z,1018.15
2018-02-14T09:08:31.662Z,1018.13
2018-02-14T09:09:31.689Z,1018.15
2018-02-14T09:10:31.708Z,1018.17
2018-02-14T09:11:31.718Z,1018.20
2018-02-14T09:12:31.739Z,1018.17
2018-02-14T09:13:31.759Z,1018.19
2018-02-14T09:14:31.777Z,1018.20
2018-02-14T09:15:31.802Z,1018.21
2018-02-14T09:16:31.812Z,1018.25
2018-02-14T09:17:31.834Z,1018.28
2018-02-14T09:18:31.858Z,1018.32
2018-02-14T09:19:31.879Z,1018.30
2018-02-14T09:20:31.886Z,1018.31
2018-02-14T09:21:31.904Z,1018.35
2018-02-14T09:22:31.926Z,1018.32
2018-02-14T09:23:31.945Z,1018.36
2018-02-14T09:24:31.973Z,1018.35
2018-02-14T09:25:31.983Z,1018.39
2018-02-14T09:26:31.999Z,1018.38
2018-02-14T09:27:32.012Z,1018.39
2018-02-14T09:28:32.048Z,1018.41
2018-02-14T09:29:32.058Z,1018.42
2018-02-14T09:30:32.071Z,1018.43
2018-02-14T09:31:32.097Z,1018.43
2018-02-14T09:32:32.111Z,1018.43
2018-02-14T09:33:32.136Z,1018.42
2018-02-14T09:34:32.147Z,1018.45
2018-02-14T09:35:32.163Z,1018.46
2018-02-14T09:36:32.191Z,1018.45
2018-02-14T09:37:32.242Z,1018.44
2018-02-14T09:38:32.221Z,1018.48
2018-02-14T09:39:32.272Z,1018.43
2018-02-14T09:40:32.260Z,1018.50
2018-02-14T09:41:32.291Z,1018.48
2018-02-14T09:42:32.301Z,1018.53
2018-02-14T09:43:32.327Z,1018.49
2018-02-14T09:44:32.348Z,1018.48
2018-02-14T09:45:32.367Z,1018.46
2018-02-14T09:46:32.375Z,1018.44
2018-02-14T09:47:32.392Z,1018.47
2018-02-14T09:48:32.421Z,1018.47
2018-02-14T09:49:32.436Z,1018.49
2018-02-14T09:50:32.469Z,1018.51
2018-02-14T09:51:32.479Z,1018.50
2018-02-14T09:52:32.511Z,1018.53
2018-02-14T09:53:32.529Z,1018.52
2018-02-14T09:54:32.528Z,1018.52
2018-02-14T09:55:32.571Z,1018.54
2018-02-14T09:56:32.581Z,1018.54
2018-02-14T09:57:32.590Z,1018.52
2018-02-14T09:58:32.630Z,1018.52
2018-02-14T09:59:32.632Z,1018.58
2018-02-14T10:00:32.650Z,1018.58
2018-02-14T10:01:32.660Z,1018.58
2018-02-14T10:02:32.688Z,1018.59
2018-02-14T10:03:32.761Z,1018.59
2018-02-14T10:04:32.725Z,1018.60
2018-02-14T10:05:32.747Z,1018.63
2018-02-14T10:06:32.821Z,1018.63
2018-02-14T10:07:32.783Z,1018.67
2018-02-14T10:08:32.800Z,1018.67
2018-02-14T10:09:32.827Z,1018.67
2018-02-14T10:10:32.842Z,1018.67
2018-02-14T10:11:32.855Z,1018.73
2018-02-14T10:12:32.873Z,1018.72
2018-02-14T10:13:32.897Z,1018.71
2018-02-14T10:14:32.914Z,1018.73
2018-02-14T10:15:32.935Z,1018.74
2018-02-14T10:16:32.951Z,1018.68
2018-02-14T10:17:32.973Z,1018.72
2018-02-14T10:18:32.997Z,1018.75
2018-02-14T10:19:33.018Z,1018.73
2018-02-14T10:20:33.046Z,1018.74
2018-02-14T10:21:33.054Z,1018.73
2018-02-14T10:22:33.076Z,1018.79
2018-02-14T10:23:33.104Z,1018.84
2018-02-14T10:24:33.132Z,1018.89
2018-02-14T10:25:33.145Z,1018.94
2018-02-14T10:26:33.162Z,1018.97
2018-02-14T10:27:33.176Z,1018.97
2018-02-14T10:28:33.194Z,1018.98
2018-02-14T10:29:33.213Z,1018.95
2018-02-14T10:30:33.259Z,1019.01
2018-02-14T10:31:33.260Z,1019.02
2018-02-14T10:32:33.284Z,1019.04
2018-02-14T10:33:33.308Z,1019.03
2018-02-14T10:34:33.332Z,1019.04
2018-02-14T10:35:33.349Z,1019.03
2018-02-14T10:36:33.389Z,1019.04
2018-02-14T10:37:33.412Z,1019.06
2018-02-14T10:38:33.435Z,1019.04
2018-02-14T10:39:33.452Z,1019.06
2018-02-14T10:40:33.480Z,1019.05
2018-02-14T10:41:33.500Z,1019.03
2018-02-14T10:42:33.534Z,1019.04
2018-02-14T10:43:33.557Z,1019.09
2018-02-14T10:44:33.596Z,1019.08
2018-02-14T10:45:33.619Z,1019.08
2018-02-14T10:46:33.640Z,1019.02
2018-02-14T10:47:33.678Z,1019.08
2018-02-14T10:48:33.695Z,1019.13
2018-02-14T10:49:33.741Z,1019.11
2018-02-14T10:50:33.766Z,1019.11
2018-02-14T10:51:33.806Z,1019.16
2018-02-14T10:52:33.827Z,1019.15
2018-02-14T10:53:33.867Z,1019.16
2018-02-14T10:54:33.896Z,1019.17
2018-02-14T10:55:33.903Z,1019.22
2018-02-14T10:56:33.950Z,1019.16
2018-02-14T10:57:33.965Z,1019.20
2018-02-14T10:58:33.996Z,1019.20
2018-02-14T10:59:34.025Z,1019.22
2018-02-14T11:00:34.066Z,1019.23
2018-02-14T11:01:34.094Z,1019.20
2018-02-14T11:02:34.125Z,1019.23
2018-02-14T11:03:34.158Z,1019.22
2018-02-14T11:04:34.190Z,1019.19
2018-02-14T11:05:34.214Z,1019.19
2018-02-14T11:06:34.256Z,1019.14
2018-02-14T11:07:34.280Z,1019.16
2018-02-14T11:08:34.308Z,1019.14
2018-02-14T11:09:34.452Z,1019.09
2018-02-14T11:10:34.388Z,1019.08
2018-02-14T11:11:34.420Z,1019.10
2018-02-14T11:12:34.436Z,1019.12
2018-02-14T11:13:34.618Z,1019.12
2018-02-14T11:14:34.517Z,1019.09
2018-02-14T11:15:34.525Z,1019.08
2018-02-14T11:16:34.567Z,1019.03
2018-02-14T11:17:34.592Z,1019.05
2018-02-14T11:18:34.622Z,1019.01
2018-02-14T11:19:34.654Z,1018.95
2018-02-14T11:20:34.760Z,1018.98
2018-02-14T11:21:34.718Z,1018.96
2018-02-14T11:22:34.755Z,1018.96
2018-02-14T11:23:34.785Z,1019.00
2018-02-14T11:24:34.818Z,1018.99
2018-02-14T11:25:34.839Z,1018.95
2018-02-14T11:26:34.883Z,1018.98
2018-02-14T11:27:34.914Z,1018.97
2018-02-14T11:28:34.931Z,1018.93
2018-02-14T11:29:35.031Z,1018.99
2018-02-14T11:30:35.003Z,1018.96
2018-02-14T11:31:35.024Z,1018.96
2018-02-14T11:32:35.054Z,1018.91
2018-02-14T11:33:35.085Z,1018.92
2018-02-14T11:34:35.110Z,1018.93
2018-02-14T11:35:35.151Z,1018.92
2018-02-14T11:36:35.191Z,1018.88
2018-02-14T11:37:35.208Z,1018.91
2018-02-14T11:38:35.234Z,1018.86
2018-02-14T11:39:35.268Z,1018.86
2018-02-14T11:40:35.294Z,1018.86
2018-02-14T11:41:35.324Z,1018.88
2018-02-14T11:42:35.353Z,1018.85
2018-02-14T11:43:35.383Z,1018.84
2018-02-14T11:44:35.419Z,1018.84
2018-02-14T11:45:35.445Z,1018.85
2018-02-14T11:46:35.489Z,1018.87
2018-02-14T11:47:35.500Z,1018.91
2018-02-14T11:48:35.532Z,1018.89
2018-02-14T11:49:35.559Z,1018.86
2018-02-14T11:50:35.590Z,1018.85
2018-02-14T11:51:35.617Z,1018.86
2018-02-14T11:52:35.653Z,1018.89
2018-02-14T11:53:35.682Z,1018.88
2018-02-14T11:54:35.704Z,1018.95
2018-02-14T11:55:35.732Z,1018.93
2018-02-14T11:56:35.760Z,1018.92
2018-02-14T11:57:35.782Z,1018.94
2018-02-14T11:58:35.820Z,1019.01
2018-02-14T11:59:35.849Z,1018.96
2018-02-14T12:00:35.870Z,1018.95
2018-02-14T12:01:35.900Z,1018.98
2018-02-14T12:02:35.926Z,1019.03
2018-02-14T12:03:35.960Z,1019.03
2018-02-14T12:04:35.985Z,1019.01
2018-02-14T12:05:36.023Z,1019.03